createdAt,value
2022-08-26T00:02:21.059Z,83.95
2022-08-26T00:04:52.199Z,84.40
2022-08-26T00:07:20.512Z,85.24
2022-08-26T00:09:50.035Z,84.49
2022-08-26T00:12:19.658Z,83.70
2022-08-26T00:15:00.735Z,84.83
2022-08-26T00:17:30.046Z,84.98
2022-08-26T00:19:59.772Z,84.34
2022-08-26T00:22:29.400Z,84.04
2022-08-26T00:24:58.515Z,84.37
2022-08-26T00:27:27.890Z,83.36
2022-08-26T00:29:56.281Z,83.28
2022-08-26T00:32:26.174Z,84.16
2022-08-26T00:34:54.516Z,84.96
2022-08-26T00:37:27.138Z,84.56
2022-08-26T00:39:55.778Z,85.10
2022-08-26T00:42:30.101Z,84.08
2022-08-26T00:44:58.536Z,84.72
2022-08-26T00:47:32.383Z,83.76
2022-08-26T00:50:03.298Z,84.70
2022-08-26T00:52:34.998Z,85.02
2022-08-26T00:55:09.200Z,86.55
2022-08-26T00:57:39.252Z,85.39
2022-08-26T01:00:11.678Z,85.64
2022-08-26T01:02:40.002Z,86.40
2022-08-26T01:05:15.977Z,86.64
2022-08-26T01:07:46.106Z,86.04
2022-08-26T01:10:18.807Z,87.29
2022-08-26T01:12:52.055Z,87.58
2022-08-26T01:15:24.070Z,88.67
2022-08-26T01:17:53.589Z,88.63
2022-08-26T01:20:29.801Z,87.47
2022-08-26T01:23:01.591Z,87.26
2022-08-26T01:25:33.602Z,88.01
2022-08-26T01:28:05.755Z,86.79
2022-08-26T01:30:35.605Z,86.75
2022-08-26T01:33:06.757Z,85.80
2022-08-26T01:35:35.071Z,85.77
2022-08-26T01:38:05.590Z,85.77
2022-08-26T01:40:37.742Z,86.32
2022-08-26T01:43:09.095Z,87.67
2022-08-26T01:45:40.857Z,87.53
2022-08-26T01:48:12.242Z,86.61
2022-08-26T01:50:43.305Z,86.67
2022-08-26T01:53:14.991Z,88.06
2022-08-26T01:55:46.168Z,88.25
2022-08-26T01:58:22.016Z,87.03
2022-08-26T02:00:54.760Z,86.91
2022-08-26T02:03:24.704Z,86.89
2022-08-26T02:05:58.312Z,86.04
2022-08-26T02:08:33.291Z,86.84
2022-08-26T02:11:04.189Z,86.63
2022-08-26T02:13:35.038Z,86.04
2022-08-26T02:16:06.423Z,86.43
2022-08-26T02:18:38.916Z,87.25
2022-08-26T02:23:52.502Z,88.02
2022-08-26T02:26:26.832Z,87.82
2022-08-26T02:28:58.208Z,87.55
2022-08-26T02:31:26.739Z,88.43
2022-08-26T02:33:56.115Z,87.36
2022-08-26T02:36:28.538Z,87.34
2022-08-26T02:39:00.531Z,86.39
2022-08-26T02:41:29.729Z,86.07
2022-08-26T02:44:02.153Z,87.09
2022-08-26T02:46:31.493Z,87.85
2022-08-26T02:49:01.731Z,88.13
2022-08-26T02:51:32.058Z,87.74
2022-08-26T02:54:04.301Z,87.49
2022-08-26T02:56:33.880Z,86.80
2022-08-26T02:59:03.647Z,86.87
2022-08-26T03:01:34.288Z,86.98
2022-08-26T03:04:04.777Z,87.87
2022-08-26T03:06:34.084Z,87.98
2022-08-26T03:09:05.516Z,88.44
2022-08-26T03:11:33.869Z,88.24
2022-08-26T03:14:03.866Z,87.88
2022-08-26T03:16:34.060Z,87.94
2022-08-26T03:19:03.510Z,87.44
2022-08-26T03:21:32.477Z,87.28
2022-08-26T03:24:00.824Z,86.94
2022-08-26T03:26:31.305Z,87.04
2022-08-26T03:29:29.736Z,87.76
2022-08-26T03:32:01.692Z,88.47
2022-08-26T03:34:29.870Z,87.79
2022-08-26T03:36:58.960Z,87.70
2022-08-26T03:39:27.032Z,87.71
2022-08-26T03:41:57.622Z,86.73
2022-08-26T03:44:25.775Z,87.41
2022-08-26T03:46:55.075Z,88.68
2022-08-26T03:49:23.727Z,87.35
2022-08-26T03:51:53.145Z,87.98
2022-08-26T03:54:21.718Z,88.47
2022-08-26T03:56:51.442Z,87.85
2022-08-26T03:59:22.381Z,88.58
2022-08-26T04:01:51.248Z,87.94
2022-08-26T04:04:22.590Z,87.47
2022-08-26T04:06:57.550Z,88.02
2022-08-26T04:09:26.667Z,89.05
2022-08-26T04:11:55.020Z,88.16
2022-08-26T04:14:28.484Z,87.71
2022-08-26T04:16:56.819Z,88.71
2022-08-26T04:19:26.208Z,88.29
2022-08-26T04:21:54.947Z,87.60
2022-08-26T04:24:24.100Z,87.72
2022-08-26T04:26:52.365Z,88.72
2022-08-26T04:29:24.296Z,88.23
2022-08-26T04:31:55.893Z,87.57
2022-08-26T04:34:28.369Z,87.85
2022-08-26T04:37:01.093Z,86.86
2022-08-26T04:39:29.551Z,87.24
2022-08-26T04:41:59.643Z,87.17
2022-08-26T04:44:31.198Z,87.25
2022-08-26T04:47:02.006Z,87.23
2022-08-26T04:49:35.526Z,87.96
2022-08-26T04:52:05.090Z,86.96
2022-08-26T04:54:33.805Z,85.56
2022-08-26T04:57:02.485Z,85.53
2022-08-26T04:59:38.477Z,86.26
2022-08-26T05:02:09.772Z,86.23
2022-08-26T05:04:43.526Z,85.89
2022-08-26T05:07:13.014Z,85.83
2022-08-26T05:09:42.051Z,85.92
2022-08-26T05:12:11.499Z,85.95
2022-08-26T05:14:41.490Z,84.57
2022-08-26T05:17:14.830Z,84.73
2022-08-26T05:19:43.444Z,85.39
2022-08-26T05:22:13.095Z,85.52
2022-08-26T05:24:41.524Z,84.21
2022-08-26T05:27:13.615Z,83.44
2022-08-26T05:29:42.793Z,83.47
2022-08-26T05:32:13.923Z,84.66
2022-08-26T05:34:42.921Z,84.96
2022-08-26T05:37:11.281Z,85.39
2022-08-26T05:39:43.513Z,85.77
2022-08-26T05:42:20.767Z,85.01
2022-08-26T05:44:56.674Z,84.29
2022-08-26T05:47:28.231Z,84.22
2022-08-26T05:49:56.904Z,84.64
2022-08-26T05:52:26.297Z,84.67
2022-08-26T05:54:54.450Z,84.26
2022-08-26T05:57:23.114Z,84.16
2022-08-26T05:59:52.907Z,84.19
2022-08-26T06:02:24.194Z,83.71
2022-08-26T06:04:56.750Z,83.34
2022-08-26T06:07:46.268Z,83.58
2022-08-26T06:10:31.633Z,83.44
2022-08-26T06:13:11.860Z,82.54
2022-08-26T06:15:43.164Z,83.11
2022-08-26T06:18:14.626Z,83.51
2022-08-26T06:20:57.928Z,83.29
2022-08-26T06:23:51.150Z,84.24
2022-08-26T06:26:19.973Z,84.45
2022-08-26T06:28:48.252Z,85.50
2022-08-26T06:31:17.411Z,85.18
2022-08-26T06:33:46.222Z,84.41
2022-08-26T06:36:21.102Z,84.03
2022-08-26T06:38:50.017Z,84.51
2022-08-26T06:41:21.219Z,84.21
2022-08-26T06:43:50.999Z,83.77
2022-08-26T06:46:20.754Z,84.28
2022-08-26T06:48:50.878Z,84.35
2022-08-26T06:51:23.608Z,84.37
2022-08-26T06:53:54.865Z,84.17
2022-08-26T06:56:25.105Z,83.76
2022-08-26T06:58:55.841Z,82.50
2022-08-26T07:01:26.340Z,82.80
2022-08-26T07:03:56.985Z,82.90
2022-08-26T07:06:28.209Z,82.32
2022-08-26T07:09:03.365Z,80.95
2022-08-26T07:11:34.093Z,81.35
2022-08-26T07:14:03.003Z,81.97
2022-08-26T07:16:32.180Z,80.42
2022-08-26T07:19:03.432Z,81.18
2022-08-26T07:21:42.071Z,80.85
2022-08-26T07:24:18.780Z,81.07
2022-08-26T07:26:48.632Z,81.74
2022-08-26T07:29:20.267Z,81.19
2022-08-26T07:31:53.168Z,80.85
2022-08-26T07:34:26.204Z,79.85
2022-08-26T07:36:57.085Z,80.35
2022-08-26T07:39:28.032Z,80.74
2022-08-26T07:41:57.545Z,79.20
2022-08-26T07:44:27.258Z,79.31
2022-08-26T07:49:23.626Z,77.90
2022-08-26T07:51:52.361Z,76.83
2022-08-26T07:54:26.658Z,75.86
2022-08-26T07:56:56.333Z,76.40
2022-08-26T07:59:25.836Z,76.55
2022-08-26T08:01:53.981Z,76.80
2022-08-26T08:04:26.735Z,76.24
2022-08-26T08:06:56.104Z,74.32
2022-08-26T08:09:26.615Z,73.81
2022-08-26T08:11:56.510Z,73.27
2022-08-26T08:14:25.103Z,72.89
2022-08-26T08:16:55.384Z,73.19
2022-08-26T08:19:36.822Z,73.43
2022-08-26T08:22:17.459Z,73.77
2022-08-26T08:24:53.027Z,73.72
2022-08-26T08:27:24.090Z,74.20
2022-08-26T08:29:54.363Z,74.17
2022-08-26T08:32:24.869Z,73.46
2022-08-26T08:34:53.766Z,72.99
2022-08-26T08:37:21.938Z,72.09
2022-08-26T08:39:51.657Z,71.55
2022-08-26T08:42:35.610Z,70.02
2022-08-26T08:45:08.380Z,70.14
2022-08-26T08:47:39.828Z,69.71
2022-08-26T08:50:17.818Z,68.79
2022-08-26T08:52:53.894Z,68.42
2022-08-26T08:55:25.822Z,67.67
2022-08-26T08:58:04.543Z,66.21
2022-08-26T09:00:40.972Z,66.21
2022-08-26T09:03:21.479Z,64.27
2022-08-26T09:05:51.575Z,64.25
2022-08-26T09:08:27.656Z,63.55
2022-08-26T09:11:00.731Z,62.35
2022-08-26T09:13:31.691Z,62.27
2022-08-26T09:16:07.641Z,60.72
2022-08-26T09:18:52.942Z,61.08
2022-08-26T09:21:23.556Z,61.84
2022-08-26T09:23:56.979Z,61.97
2022-08-26T09:26:30.973Z,61.85
2022-08-26T09:29:02.439Z,62.63
2022-08-26T09:31:33.022Z,62.80
2022-08-26T09:34:10.217Z,62.50
2022-08-26T09:36:43.813Z,62.25
2022-08-26T09:39:37.877Z,61.54
2022-08-26T09:42:11.873Z,61.20
2022-08-26T09:44:56.536Z,61.40
2022-08-26T09:47:29.816Z,60.24
2022-08-26T09:50:02.260Z,59.62
2022-08-26T09:52:30.363Z,59.27
2022-08-26T09:55:06.008Z,58.58
2022-08-26T09:57:38.287Z,57.85
2022-08-26T10:00:25.729Z,55.73
2022-08-26T10:03:07.265Z,55.51
2022-08-26T10:05:41.462Z,53.90
2022-08-26T10:08:24.736Z,52.74
2022-08-26T10:10:54.322Z,52.70
2022-08-26T10:13:29.560Z,52.62
2022-08-26T10:16:10.740Z,52.43
2022-08-26T10:18:42.291Z,52.14
2022-08-26T10:21:14.161Z,51.89
2022-08-26T10:23:49.788Z,51.65
2022-08-26T10:26:24.134Z,50.50
2022-08-26T10:28:57.840Z,50.38
2022-08-26T10:31:30.845Z,51.07
2022-08-26T10:34:10.448Z,49.99
2022-08-26T10:37:15.522Z,49.42
2022-08-26T10:39:46.632Z,49.00
2022-08-26T10:42:21.814Z,48.29
2022-08-26T10:45:05.360Z,47.80
2022-08-26T10:47:39.804Z,48.53
2022-08-26T10:50:09.584Z,49.09
2022-08-26T10:52:53.646Z,49.06
2022-08-26T10:55:27.442Z,49.51
2022-08-26T10:57:59.448Z,49.30
2022-08-26T11:00:54.310Z,48.90
2022-08-26T11:03:40.029Z,48.32
2022-08-26T11:06:23.929Z,47.57
2022-08-26T11:08:53.960Z,48.47
2022-08-26T11:11:45.419Z,48.31
2022-08-26T11:14:53.115Z,47.73
2022-08-26T11:18:00.103Z,47.55
2022-08-26T11:20:35.959Z,47.05
2022-08-26T11:23:41.630Z,46.74
2022-08-26T11:26:35.611Z,46.53
2022-08-26T11:29:12.254Z,46.05
2022-08-26T11:31:57.054Z,44.84
2022-08-26T11:34:57.092Z,45.25
2022-08-26T11:37:33.295Z,45.16
2022-08-26T11:40:04.984Z,45.63
2022-08-26T11:42:41.044Z,45.42
2022-08-26T11:45:20.147Z,44.89
2022-08-26T11:47:49.476Z,44.77
2022-08-26T11:50:26.997Z,44.87
2022-08-26T11:53:01.727Z,44.92
2022-08-26T11:55:32.250Z,43.31
2022-08-26T11:58:05.033Z,44.20
2022-08-26T12:00:54.363Z,44.57
2022-08-26T12:03:26.974Z,43.63
2022-08-26T12:05:57.366Z,43.43
2022-08-26T12:08:29.182Z,43.37
2022-08-26T12:11:06.417Z,42.04
2022-08-26T12:13:35.459Z,41.77
2022-08-26T12:16:07.780Z,41.78
2022-08-26T12:18:38.509Z,42.39
2022-08-26T12:21:16.259Z,41.47
2022-08-26T12:23:46.885Z,41.19
2022-08-26T12:26:28.145Z,40.50
2022-08-26T12:28:58.217Z,40.38
2022-08-26T12:31:31.265Z,39.94
2022-08-26T12:34:01.131Z,39.62
2022-08-26T12:36:37.230Z,39.33
2022-08-26T12:39:11.064Z,40.27
2022-08-26T12:41:50.206Z,40.38
2022-08-26T12:44:42.565Z,39.02
2022-08-26T12:47:30.977Z,37.93
2022-08-26T12:50:18.312Z,37.03
2022-08-26T12:52:59.244Z,36.23
2022-08-26T12:55:36.588Z,35.51
2022-08-26T12:58:23.035Z,35.00
2022-08-26T13:00:52.705Z,35.95
2022-08-26T13:03:43.427Z,36.17
2022-08-26T13:06:19.156Z,35.25
2022-08-26T13:08:51.458Z,35.03
2022-08-26T13:11:22.446Z,36.26
2022-08-26T13:13:53.525Z,37.54
2022-08-26T13:16:22.425Z,36.67
2022-08-26T13:18:53.137Z,35.81
2022-08-26T13:21:24.561Z,34.66
2022-08-26T13:23:56.005Z,34.06
2022-08-26T13:26:24.716Z,33.37
2022-08-26T13:29:01.367Z,33.11
2022-08-26T13:31:33.064Z,32.77
2022-08-26T13:34:03.738Z,33.19
2022-08-26T13:36:32.814Z,34.88
2022-08-26T13:39:03.450Z,34.85
2022-08-26T13:41:33.056Z,33.77
2022-08-26T13:44:02.263Z,32.72
2022-08-26T13:46:30.921Z,32.73
2022-08-26T13:48:59.347Z,32.24
2022-08-26T13:51:28.498Z,31.56
2022-08-26T13:53:58.119Z,31.54
2022-08-26T13:56:30.970Z,32.35
2022-08-26T13:59:01.243Z,31.66
2022-08-26T14:01:31.363Z,31.60
2022-08-26T14:04:00.709Z,31.20
2022-08-26T14:06:33.459Z,31.74
2022-08-26T14:09:05.246Z,33.04
2022-08-26T14:11:50.866Z,33.96
2022-08-26T14:14:22.981Z,34.74
2022-08-26T14:16:58.695Z,35.75
2022-08-26T14:19:31.178Z,36.41
2022-08-26T14:22:01.514Z,36.35
2022-08-26T14:24:31.254Z,34.91
2022-08-26T14:27:01.116Z,34.20
2022-08-26T14:29:29.388Z,33.32
2022-08-26T14:31:58.773Z,33.34
2022-08-26T14:34:29.991Z,33.78
2022-08-26T14:36:58.203Z,33.97
2022-08-26T14:39:37.367Z,34.45
2022-08-26T14:42:09.101Z,33.80
2022-08-26T14:44:38.707Z,34.31
2022-08-26T14:47:08.020Z,33.97
2022-08-26T14:49:37.720Z,34.32
2022-08-26T14:52:05.976Z,34.57
2022-08-26T14:54:34.234Z,34.67
2022-08-26T14:57:04.973Z,34.66
2022-08-26T14:59:38.830Z,34.67
2022-08-26T15:02:09.150Z,35.09
2022-08-26T15:04:43.664Z,34.63
2022-08-26T15:07:12.926Z,34.77
2022-08-26T15:09:42.115Z,34.56
2022-08-26T15:12:10.357Z,35.22
2022-08-26T15:14:46.518Z,34.93
2022-08-26T15:17:17.022Z,35.90
2022-08-26T15:19:45.478Z,36.00
2022-08-26T15:22:14.841Z,35.74
2022-08-26T15:24:44.725Z,36.15
2022-08-26T15:27:15.551Z,36.65
2022-08-26T15:29:49.749Z,36.69
2022-08-26T15:32:18.895Z,36.23
2022-08-26T15:34:50.055Z,35.21
2022-08-26T15:37:19.215Z,34.73
2022-08-26T15:39:56.871Z,34.41
2022-08-26T15:42:25.392Z,34.53
2022-08-26T15:44:57.296Z,34.54
2022-08-26T15:47:28.297Z,35.39
2022-08-26T15:49:58.267Z,35.29
2022-08-26T15:52:28.986Z,35.94
2022-08-26T15:54:58.785Z,35.51
2022-08-26T15:57:30.269Z,34.63
2022-08-26T16:00:04.496Z,33.96
2022-08-26T16:02:57.081Z,33.24
2022-08-26T16:05:39.506Z,32.97
2022-08-26T16:08:09.891Z,33.11
2022-08-26T16:10:50.561Z,32.92
2022-08-26T16:13:23.843Z,33.17
2022-08-26T16:16:19.030Z,32.69
2022-08-26T16:18:51.820Z,33.25
2022-08-26T16:21:22.014Z,33.11
2022-08-26T16:23:51.010Z,33.46
2022-08-26T16:26:27.739Z,34.11
2022-08-26T16:28:56.508Z,34.92
2022-08-26T16:31:36.155Z,35.47
2022-08-26T16:34:10.798Z,36.83
2022-08-26T16:36:48.529Z,37.27
2022-08-26T16:39:20.118Z,37.82
2022-08-26T16:41:49.161Z,38.07
2022-08-26T16:44:18.622Z,38.36
2022-08-26T16:46:50.582Z,38.90
2022-08-26T16:49:28.245Z,39.38
2022-08-26T16:51:56.948Z,39.55
2022-08-26T16:54:27.631Z,39.97
2022-08-26T16:56:58.640Z,40.15
2022-08-26T16:59:28.162Z,40.26
2022-08-26T17:01:58.469Z,39.72
2022-08-26T17:04:28.344Z,39.55
2022-08-26T17:06:56.996Z,39.64
2022-08-26T17:09:26.868Z,39.53
2022-08-26T17:11:55.952Z,39.65
2022-08-26T17:14:26.339Z,39.62
2022-08-26T17:16:57.629Z,39.82
2022-08-26T17:19:29.605Z,39.26
2022-08-26T17:22:05.656Z,39.63
2022-08-26T17:24:36.065Z,39.78
2022-08-26T17:27:05.410Z,39.48
2022-08-26T17:29:35.389Z,40.00
2022-08-26T17:32:03.801Z,39.39
2022-08-26T17:34:35.655Z,39.86
2022-08-26T17:37:04.221Z,40.21
2022-08-26T17:39:33.709Z,39.99
2022-08-26T17:42:02.005Z,40.22
2022-08-26T17:44:31.868Z,40.14
2022-08-26T17:46:59.981Z,39.91
2022-08-26T17:49:28.782Z,40.31
2022-08-26T17:52:00.013Z,40.89
2022-08-26T17:54:32.046Z,40.75
2022-08-26T17:57:00.620Z,41.15
2022-08-26T17:59:30.847Z,41.35
2022-08-26T18:02:01.956Z,41.50
2022-08-26T18:04:31.299Z,41.78
2022-08-26T18:07:10.325Z,42.55
2022-08-26T18:09:38.964Z,43.04
2022-08-26T18:12:13.387Z,43.39
2022-08-26T18:14:44.894Z,43.39
2022-08-26T18:17:15.377Z,44.16
2022-08-26T18:20:07.016Z,44.21
2022-08-26T18:22:41.388Z,43.95
2022-08-26T18:25:18.796Z,44.36
2022-08-26T18:27:53.172Z,44.01
2022-08-26T18:30:23.744Z,43.09
2022-08-26T18:32:53.788Z,43.53
2022-08-26T18:35:29.434Z,44.53
2022-08-26T18:38:01.420Z,44.94
2022-08-26T18:40:47.658Z,45.25
2022-08-26T18:43:18.133Z,45.63
2022-08-26T18:45:56.456Z,45.11
2022-08-26T18:48:28.646Z,44.93
2022-08-26T18:51:05.860Z,45.62
2022-08-26T18:53:38.353Z,46.17
2022-08-26T18:56:07.673Z,46.92
2022-08-26T18:58:36.607Z,46.91
2022-08-26T19:01:09.390Z,49.20
2022-08-26T19:03:40.766Z,49.54
2022-08-26T19:06:09.977Z,50.23
2022-08-26T19:08:46.315Z,51.89
2022-08-26T19:11:31.228Z,51.54
2022-08-26T19:16:50.347Z,52.65
2022-08-26T19:19:28.179Z,53.15
2022-08-26T19:21:59.763Z,53.95
2022-08-26T19:24:46.031Z,54.88
2022-08-26T19:27:19.395Z,55.67
2022-08-26T19:29:53.661Z,57.37
2022-08-26T19:32:27.162Z,58.38
2022-08-26T19:34:59.626Z,59.91
2022-08-26T19:37:29.959Z,60.57
2022-08-26T19:40:13.231Z,61.96
2022-08-26T19:42:45.202Z,62.67
2022-08-26T19:45:24.812Z,64.13
2022-08-26T19:48:06.782Z,64.27
2022-08-26T19:50:41.050Z,65.36
2022-08-26T19:53:12.008Z,66.03
2022-08-26T19:56:04.253Z,66.67
2022-08-26T19:58:35.711Z,67.29
2022-08-26T20:01:18.308Z,67.17
2022-08-26T20:03:51.016Z,67.02
2022-08-26T20:06:20.167Z,67.34
2022-08-26T20:08:52.111Z,67.17
2022-08-26T20:11:28.758Z,67.00
2022-08-26T20:13:57.657Z,67.79
2022-08-26T20:16:26.198Z,67.85
2022-08-26T20:19:12.764Z,67.99
2022-08-26T20:21:43.694Z,67.70
2022-08-26T20:24:14.891Z,67.67
2022-08-26T20:26:47.116Z,67.56
2022-08-26T20:29:18.930Z,67.38
2022-08-26T20:31:52.626Z,67.58
2022-08-26T20:34:22.057Z,67.66
2022-08-26T20:36:59.696Z,66.98
2022-08-26T20:39:32.130Z,67.06
2022-08-26T20:42:03.354Z,67.16
2022-08-26T20:44:35.145Z,67.84
2022-08-26T20:47:04.874Z,67.34
2022-08-26T20:49:33.277Z,67.23
2022-08-26T20:52:04.875Z,67.43
2022-08-26T20:54:33.185Z,67.76
2022-08-26T20:57:03.971Z,67.37
2022-08-26T20:59:32.227Z,67.86
2022-08-26T21:02:01.888Z,67.09
2022-08-26T21:04:31.432Z,66.66
2022-08-26T21:06:59.680Z,66.15
2022-08-26T21:09:31.762Z,66.34
2022-08-26T21:12:03.573Z,66.07
2022-08-26T21:14:33.888Z,65.98
2022-08-26T21:17:06.107Z,65.99
2022-08-26T21:19:34.426Z,65.07
2022-08-26T21:22:04.179Z,64.24
2022-08-26T21:24:33.739Z,63.06
2022-08-26T21:27:02.243Z,62.96
2022-08-26T21:29:31.642Z,62.96
2022-08-26T21:32:03.677Z,63.01
2022-08-26T21:34:33.520Z,62.49
2022-08-26T21:37:02.165Z,61.91
2022-08-26T21:39:39.240Z,62.09
2022-08-26T21:42:08.245Z,62.82
2022-08-26T21:44:39.059Z,62.63
2022-08-26T21:47:10.992Z,62.91
2022-08-26T21:49:44.202Z,61.32
2022-08-26T21:52:15.326Z,60.19
2022-08-26T21:54:49.657Z,60.30
2022-08-26T21:57:18.933Z,59.83
2022-08-26T21:59:47.630Z,60.18
2022-08-26T22:02:18.271Z,59.96
2022-08-26T22:04:48.929Z,60.07
2022-08-26T22:07:20.426Z,59.82
2022-08-26T22:10:04.632Z,60.06
2022-08-26T22:12:42.079Z,60.34
2022-08-26T22:15:14.441Z,60.11
2022-08-26T22:17:46.028Z,59.96
2022-08-26T22:20:16.449Z,59.52
2022-08-26T22:22:45.841Z,59.72
2022-08-26T22:25:15.454Z,59.08
2022-08-26T22:27:44.634Z,59.21
2022-08-26T22:30:15.892Z,59.17
2022-08-26T22:32:45.846Z,59.69
2022-08-26T22:35:28.991Z,59.76
2022-08-26T22:37:58.606Z,59.87
2022-08-26T22:40:32.978Z,60.45
2022-08-26T22:43:03.525Z,59.83
2022-08-26T22:45:33.640Z,59.77
2022-08-26T22:48:04.764Z,59.91
2022-08-26T22:50:34.090Z,59.63
2022-08-26T22:53:02.794Z,59.95
2022-08-26T22:55:34.058Z,60.49
2022-08-26T22:58:02.361Z,60.12
2022-08-26T23:00:31.989Z,60.30
2022-08-26T23:03:04.303Z,60.51
2022-08-26T23:05:34.172Z,59.65
2022-08-26T23:08:03.066Z,59.93
2022-08-26T23:10:33.869Z,60.13
2022-08-26T23:13:03.774Z,60.46
2022-08-26T23:15:36.169Z,60.76
2022-08-26T23:18:08.128Z,60.67
2022-08-26T23:20:37.648Z,60.71
2022-08-26T23:23:07.764Z,61.03
2022-08-26T23:25:38.374Z,61.13
2022-08-26T23:28:12.532Z,61.29
2022-08-26T23:30:41.550Z,61.68
2022-08-26T23:33:11.006Z,61.41
2022-08-26T23:35:38.459Z,61.93
2022-08-26T23:38:10.187Z,62.07
2022-08-26T23:40:47.794Z,62.59
2022-08-26T23:43:17.770Z,63.63
2022-08-26T23:45:46.523Z,62.29
2022-08-26T23:48:14.685Z,62.60
2022-08-26T23:51:07.212Z,63.28
2022-08-26T23:53:35.780Z,63.17
2022-08-26T23:56:05.537Z,63.26
2022-08-26T23:58:34.563Z,63.07
